sensor_id;sensor_type;location;lat;lon;timestamp;temperature;humidity
14049;DHT22;7099;53.922;10.728;2022-12-16T00:03:00;-0.70;99.90
14049;DHT22;7099;53.922;10.728;2022-12-16T00:07:05;-0.70;99.90
14049;DHT22;7099;53.922;10.728;2022-12-16T00:11:11;-0.60;99.90
14049;DHT22;7099;53.922;10.728;2022-12-16T00:15:16;-0.60;99.90
14049;DHT22;7099;53.922;10.728;2022-12-16T00:19:21;-0.60;99.90
14049;DHT22;7099;53.922;10.728;2022-12-16T00:23:26;-0.60;99.90
14049;DHT22;7099;53.922;10.728;2022-12-16T00:27:31;-0.60;99.90
14049;DHT22;7099;53.922;10.728;2022-12-16T00:31:36;-0.60;99.90
14049;DHT22;7099;53.922;10.728;2022-12-16T00:35:42;-0.60;99.90
14049;DHT22;7099;53.922;10.728;2022-12-16T00:39:49;-0.60;99.90
14049;DHT22;7099;53.922;10.728;2022-12-16T00:43:54;-0.60;99.90
14049;DHT22;7099;53.922;10.728;2022-12-16T00:47:59;-0.50;99.90
14049;DHT22;7099;53.922;10.728;2022-12-16T00:52:04;-0.50;99.90
14049;DHT22;7099;53.922;10.728;2022-12-16T00:56:11;-0.50;99.90
14049;DHT22;7099;53.922;10.728;2022-12-16T01:00:18;-0.50;99.90
14049;DHT22;7099;53.922;10.728;2022-12-16T01:04:23;-0.50;99.90
14049;DHT22;7099;53.922;10.728;2022-12-16T01:08:30;-0.50;99.90
14049;DHT22;7099;53.922;10.728;2022-12-16T01:12:36;-0.50;99.90
14049;DHT22;7099;53.922;10.728;2022-12-16T01:16:41;-0.40;99.90
14049;DHT22;7099;53.922;10.728;2022-12-16T01:20:46;-0.50;99.90
14049;DHT22;7099;53.922;10.728;2022-12-16T01:24:51;-0.40;99.90
14049;DHT22;7099;53.922;10.728;2022-12-16T01:28:56;-0.40;99.90
14049;DHT22;7099;53.922;10.728;2022-12-16T01:33:01;-0.40;99.90
14049;DHT22;7099;53.922;10.728;2022-12-16T01:37:11;-0.50;99.90
14049;DHT22;7099;53.922;10.728;2022-12-16T01:41:16;-0.50;99.90
14049;DHT22;7099;53.922;10.728;2022-12-16T01:45:33;-0.50;99.90
14049;DHT22;7099;53.922;10.728;2022-12-16T01:50:08;-0.40;99.90
14049;DHT22;7099;53.922;10.728;2022-12-16T01:54:24;-0.40;99.90
14049;DHT22;7099;53.922;10.728;2022-12-16T01:58:33;-0.40;99.90
14049;DHT22;7099;53.922;10.728;2022-12-16T02:02:45;-0.50;99.90
14049;DHT22;7099;53.922;10.728;2022-12-16T02:06:51;-0.40;99.90
14049;DHT22;7099;53.922;10.728;2022-12-16T02:34:01;-0.30;99.90
14049;DHT22;7099;53.922;10.728;2022-12-16T02:42:49;-0.30;99.90
14049;DHT22;7099;53.922;10.728;2022-12-16T02:46:58;-0.30;99.90
14049;DHT22;7099;53.922;10.728;2022-12-16T02:51:03;-0.30;99.90
14049;DHT22;7099;53.922;10.728;2022-12-16T02:55:09;-0.30;99.90
14049;DHT22;7099;53.922;10.728;2022-12-16T02:59:20;-0.30;99.90
14049;DHT22;7099;53.922;10.728;2022-12-16T03:04:00;-0.40;99.90
14049;DHT22;7099;53.922;10.728;2022-12-16T03:08:14;-0.40;99.90
14049;DHT22;7099;53.922;10.728;2022-12-16T03:12:23;-0.40;99.90
14049;DHT22;7099;53.922;10.728;2022-12-16T03:16:32;-0.50;99.90
14049;DHT22;7099;53.922;10.728;2022-12-16T03:20:46;-0.50;99.90
14049;DHT22;7099;53.922;10.728;2022-12-16T03:25:19;-0.50;99.90
14049;DHT22;7099;53.922;10.728;2022-12-16T03:29:35;-0.50;99.90
14049;DHT22;7099;53.922;10.728;2022-12-16T03:33:57;-0.50;99.90
14049;DHT22;7099;53.922;10.728;2022-12-16T03:38:08;-0.50;99.90
14049;DHT22;7099;53.922;10.728;2022-12-16T03:42:15;-0.60;99.90
14049;DHT22;7099;53.922;10.728;2022-12-16T03:46:20;-0.60;99.90
14049;DHT22;7099;53.922;10.728;2022-12-16T03:50:31;-0.60;99.90
14049;DHT22;7099;53.922;10.728;2022-12-16T03:54:37;-0.60;99.90
14049;DHT22;7099;53.922;10.728;2022-12-16T03:58:42;-0.70;99.90
14049;DHT22;7099;53.922;10.728;2022-12-16T04:02:47;-0.70;99.90
14049;DHT22;7099;53.922;10.728;2022-12-16T04:06:53;-0.70;99.90
14049;DHT22;7099;53.922;10.728;2022-12-16T04:11:16;-0.70;99.90
14049;DHT22;7099;53.922;10.728;2022-12-16T04:15:39;-0.70;99.90
14049;DHT22;7099;53.922;10.728;2022-12-16T04:20:03;-0.70;99.90
14049;DHT22;7099;53.922;10.728;2022-12-16T04:24:28;-0.70;99.90
14049;DHT22;7099;53.922;10.728;2022-12-16T04:28:33;-0.80;99.90
14049;DHT22;7099;53.922;10.728;2022-12-16T04:32:38;-0.80;99.90
14049;DHT22;7099;53.922;10.728;2022-12-16T04:37:02;-0.80;99.90
14049;DHT22;7099;53.922;10.728;2022-12-16T04:41:25;-0.90;99.90
14049;DHT22;7099;53.922;10.728;2022-12-16T04:45:48;-0.90;99.90
14049;DHT22;7099;53.922;10.728;2022-12-16T04:50:12;-0.90;99.90
14049;DHT22;7099;53.922;10.728;2022-12-16T04:54:35;-0.90;99.90
14049;DHT22;7099;53.922;10.728;2022-12-16T04:58:59;-0.90;99.90
14049;DHT22;7099;53.922;10.728;2022-12-16T05:03:23;-0.90;99.90
14049;DHT22;7099;53.922;10.728;2022-12-16T05:07:47;-0.90;99.90
14049;DHT22;7099;53.922;10.728;2022-12-16T05:12:10;-0.90;99.90
14049;DHT22;7099;53.922;10.728;2022-12-16T05:16:34;-0.90;99.90
14049;DHT22;7099;53.922;10.728;2022-12-16T05:20:58;-0.90;99.90
14049;DHT22;7099;53.922;10.728;2022-12-16T05:25:23;-1.00;99.90
14049;DHT22;7099;53.922;10.728;2022-12-16T05:29:46;-1.10;99.90
14049;DHT22;7099;53.922;10.728;2022-12-16T05:34:10;-1.20;99.90
14049;DHT22;7099;53.922;10.728;2022-12-16T05:38:34;-1.20;99.90
14049;DHT22;7099;53.922;10.728;2022-12-16T05:42:57;-1.20;99.90
14049;DHT22;7099;53.922;10.728;2022-12-16T05:47:21;-1.30;99.90
14049;DHT22;7099;53.922;10.728;2022-12-16T05:51:44;-1.30;99.90
14049;DHT22;7099;53.922;10.728;2022-12-16T05:56:21;-1.40;99.90
14049;DHT22;7099;53.922;10.728;2022-12-16T06:00:44;-1.40;99.90
14049;DHT22;7099;53.922;10.728;2022-12-16T06:05:08;-1.50;99.90
14049;DHT22;7099;53.922;10.728;2022-12-16T06:09:31;-1.50;99.90
14049;DHT22;7099;53.922;10.728;2022-12-16T06:14:00;-1.60;99.90
14049;DHT22;7099;53.922;10.728;2022-12-16T06:18:23;-1.60;99.90
14049;DHT22;7099;53.922;10.728;2022-12-16T06:22:53;-1.60;99.90
14049;DHT22;7099;53.922;10.728;2022-12-16T06:27:17;-1.70;99.90
14049;DHT22;7099;53.922;10.728;2022-12-16T06:31:41;-1.70;99.90
14049;DHT22;7099;53.922;10.728;2022-12-16T06:36:04;-1.80;99.90
14049;DHT22;7099;53.922;10.728;2022-12-16T06:40:28;-1.80;99.90
14049;DHT22;7099;53.922;10.728;2022-12-16T06:44:51;-1.80;99.90
14049;DHT22;7099;53.922;10.728;2022-12-16T06:49:15;-1.90;99.90
14049;DHT22;7099;53.922;10.728;2022-12-16T06:53:38;-1.90;99.90
14049;DHT22;7099;53.922;10.728;2022-12-16T06:58:02;-2.00;99.90
14049;DHT22;7099;53.922;10.728;2022-12-16T07:02:25;-2.10;99.90
14049;DHT22;7099;53.922;10.728;2022-12-16T07:06:49;-2.10;99.90
14049;DHT22;7099;53.922;10.728;2022-12-16T07:11:12;-2.20;99.90
14049;DHT22;7099;53.922;10.728;2022-12-16T07:15:35;-2.20;99.90
14049;DHT22;7099;53.922;10.728;2022-12-16T07:19:59;-2.30;99.90
14049;DHT22;7099;53.922;10.728;2022-12-16T07:24:22;-2.30;99.90
14049;DHT22;7099;53.922;10.728;2022-12-16T07:28:45;-2.40;99.90
14049;DHT22;7099;53.922;10.728;2022-12-16T07:33:09;-2.40;99.90
14049;DHT22;7099;53.922;10.728;2022-12-16T07:37:32;-2.40;99.90
14049;DHT22;7099;53.922;10.728;2022-12-16T07:41:56;-2.40;99.90
14049;DHT22;7099;53.922;10.728;2022-12-16T07:46:19;-2.50;99.90
14049;DHT22;7099;53.922;10.728;2022-12-16T07:50:43;-2.50;99.90
14049;DHT22;7099;53.922;10.728;2022-12-16T07:55:07;-2.50;99.90
14049;DHT22;7099;53.922;10.728;2022-12-16T07:59:31;-2.50;99.90
14049;DHT22;7099;53.922;10.728;2022-12-16T08:03:54;-2.40;99.90
14049;DHT22;7099;53.922;10.728;2022-12-16T08:08:17;-2.40;99.90
14049;DHT22;7099;53.922;10.728;2022-12-16T08:12:41;-2.40;99.90
14049;DHT22;7099;53.922;10.728;2022-12-16T08:17:04;-2.40;99.90
14049;DHT22;7099;53.922;10.728;2022-12-16T08:21:27;-2.40;99.90
14049;DHT22;7099;53.922;10.728;2022-12-16T08:25:51;-2.30;99.90
14049;DHT22;7099;53.922;10.728;2022-12-16T08:30:15;-2.30;99.90
14049;DHT22;7099;53.922;10.728;2022-12-16T08:34:39;-2.30;99.90
14049;DHT22;7099;53.922;10.728;2022-12-16T08:39:03;-2.20;99.90
14049;DHT22;7099;53.922;10.728;2022-12-16T08:43:30;-2.20;99.90
14049;DHT22;7099;53.922;10.728;2022-12-16T08:47:58;-2.10;99.90
14049;DHT22;7099;53.922;10.728;2022-12-16T08:52:22;-2.10;99.90
14049;DHT22;7099;53.922;10.728;2022-12-16T08:56:45;-2.10;99.90
14049;DHT22;7099;53.922;10.728;2022-12-16T09:01:09;-2.00;99.90
14049;DHT22;7099;53.922;10.728;2022-12-16T09:05:32;-1.90;99.90
14049;DHT22;7099;53.922;10.728;2022-12-16T09:09:56;-1.80;99.90
14049;DHT22;7099;53.922;10.728;2022-12-16T09:14:20;-1.80;99.90
14049;DHT22;7099;53.922;10.728;2022-12-16T09:18:43;-1.70;99.90
14049;DHT22;7099;53.922;10.728;2022-12-16T09:23:08;-1.60;99.90
14049;DHT22;7099;53.922;10.728;2022-12-16T09:27:31;-1.50;99.90
14049;DHT22;7099;53.922;10.728;2022-12-16T09:31:55;-1.50;99.90
14049;DHT22;7099;53.922;10.728;2022-12-16T09:36:18;-1.40;99.90
14049;DHT22;7099;53.922;10.728;2022-12-16T09:40:42;-1.30;99.90
14049;DHT22;7099;53.922;10.728;2022-12-16T09:50:23;-1.30;99.90
14049;DHT22;7099;53.922;10.728;2022-12-16T09:54:48;-1.20;99.90
14049;DHT22;7099;53.922;10.728;2022-12-16T09:59:14;-1.10;99.90
14049;DHT22;7099;53.922;10.728;2022-12-16T10:03:41;-1.10;99.90
14049;DHT22;7099;53.922;10.728;2022-12-16T10:12:58;-0.90;99.90
14049;DHT22;7099;53.922;10.728;2022-12-16T10:17:24;-0.90;99.90
14049;DHT22;7099;53.922;10.728;2022-12-16T10:21:53;-0.90;99.90
14049;DHT22;7099;53.922;10.728;2022-12-16T10:31:28;-0.70;99.90
14049;DHT22;7099;53.922;10.728;2022-12-16T10:35:52;-0.70;99.90
14049;DHT22;7099;53.922;10.728;2022-12-16T10:40:20;-0.60;99.90
14049;DHT22;7099;53.922;10.728;2022-12-16T10:44:53;-0.60;99.90
14049;DHT22;7099;53.922;10.728;2022-12-16T10:49:18;-0.50;99.90
14049;DHT22;7099;53.922;10.728;2022-12-16T10:53:45;-0.40;99.90
14049;DHT22;7099;53.922;10.728;2022-12-16T10:58:25;-0.40;99.90
14049;DHT22;7099;53.922;10.728;2022-12-16T11:03:21;-0.30;99.90
14049;DHT22;7099;53.922;10.728;2022-12-16T11:07:51;-0.30;99.90
14049;DHT22;7099;53.922;10.728;2022-12-16T11:12:28;-0.20;99.90
14049;DHT22;7099;53.922;10.728;2022-12-16T11:21:46;-0.10;99.90
14049;DHT22;7099;53.922;10.728;2022-12-16T11:26:18;0.00;99.90
14049;DHT22;7099;53.922;10.728;2022-12-16T11:30:42;0.00;99.90
14049;DHT22;7099;53.922;10.728;2022-12-16T11:35:18;0.10;99.90
14049;DHT22;7099;53.922;10.728;2022-12-16T11:39:43;0.10;99.90
14049;DHT22;7099;53.922;10.728;2022-12-16T11:44:16;0.10;99.90
14049;DHT22;7099;53.922;10.728;2022-12-16T11:48:45;0.20;99.90
14049;DHT22;7099;53.922;10.728;2022-12-16T11:58:16;0.30;99.90
14049;DHT22;7099;53.922;10.728;2022-12-16T12:02:47;0.30;99.90
14049;DHT22;7099;53.922;10.728;2022-12-16T12:07:36;0.40;99.90
14049;DHT22;7099;53.922;10.728;2022-12-16T12:12:16;0.40;99.90
14049;DHT22;7099;53.922;10.728;2022-12-16T12:17:06;0.50;99.90
14049;DHT22;7099;53.922;10.728;2022-12-16T12:26:27;0.60;99.90
14049;DHT22;7099;53.922;10.728;2022-12-16T12:40:30;0.70;99.90
14049;DHT22;7099;53.922;10.728;2022-12-16T12:50:18;0.80;99.90
14049;DHT22;7099;53.922;10.728;2022-12-16T12:55:40;0.80;99.90
14049;DHT22;7099;53.922;10.728;2022-12-16T13:00:31;0.80;99.90
14049;DHT22;7099;53.922;10.728;2022-12-16T13:04:49;0.90;99.90
14049;DHT22;7099;53.922;10.728;2022-12-16T13:09:29;0.90;99.90
14049;DHT22;7099;53.922;10.728;2022-12-16T13:13:54;0.90;99.90
14049;DHT22;7099;53.922;10.728;2022-12-16T13:22:51;1.00;99.90
14049;DHT22;7099;53.922;10.728;2022-12-16T13:27:15;1.00;99.90
14049;DHT22;7099;53.922;10.728;2022-12-16T13:31:59;1.00;99.90
14049;DHT22;7099;53.922;10.728;2022-12-16T13:36:33;1.10;99.90
14049;DHT22;7099;53.922;10.728;2022-12-16T13:40:59;1.10;99.90
14049;DHT22;7099;53.922;10.728;2022-12-16T13:45:36;1.10;99.90
14049;DHT22;7099;53.922;10.728;2022-12-16T13:50:36;1.10;99.90
14049;DHT22;7099;53.922;10.728;2022-12-16T13:55:12;1.10;99.90
14049;DHT22;7099;53.922;10.728;2022-12-16T13:59:39;1.10;99.90
14049;DHT22;7099;53.922;10.728;2022-12-16T14:04:08;1.10;99.90
14049;DHT22;7099;53.922;10.728;2022-12-16T14:08:35;1.10;99.90
14049;DHT22;7099;53.922;10.728;2022-12-16T14:18:39;1.10;99.90
14049;DHT22;7099;53.922;10.728;2022-12-16T14:28:13;1.10;99.90
14049;DHT22;7099;53.922;10.728;2022-12-16T14:32:59;1.10;99.90
14049;DHT22;7099;53.922;10.728;2022-12-16T14:37:32;1.10;99.90
14049;DHT22;7099;53.922;10.728;2022-12-16T14:41:57;1.10;99.90
14049;DHT22;7099;53.922;10.728;2022-12-16T14:50:48;1.10;99.90
14049;DHT22;7099;53.922;10.728;2022-12-16T14:55:32;1.10;99.90
14049;DHT22;7099;53.922;10.728;2022-12-16T15:00:14;1.10;99.90
14049;DHT22;7099;53.922;10.728;2022-12-16T15:04:42;1.10;99.90
14049;DHT22;7099;53.922;10.728;2022-12-16T15:09:15;1.10;99.90
14049;DHT22;7099;53.922;10.728;2022-12-16T15:13:42;1.10;99.90
14049;DHT22;7099;53.922;10.728;2022-12-16T15:18:18;1.00;99.90
14049;DHT22;7099;53.922;10.728;2022-12-16T15:22:47;1.00;99.90
14049;DHT22;7099;53.922;10.728;2022-12-16T15:31:43;0.90;99.90
14049;DHT22;7099;53.922;10.728;2022-12-16T15:36:33;0.90;99.90
14049;DHT22;7099;53.922;10.728;2022-12-16T15:40:59;0.90;99.90
14049;DHT22;7099;53.922;10.728;2022-12-16T15:45:28;0.90;99.90
14049;DHT22;7099;53.922;10.728;2022-12-16T15:49:52;0.90;99.90
14049;DHT22;7099;53.922;10.728;2022-12-16T15:54:19;0.90;99.90
14049;DHT22;7099;53.922;10.728;2022-12-16T15:58:44;0.90;99.90
14049;DHT22;7099;53.922;10.728;2022-12-16T16:07:51;0.90;99.90
14049;DHT22;7099;53.922;10.728;2022-12-16T16:12:16;0.90;99.90
14049;DHT22;7099;53.922;10.728;2022-12-16T16:16:42;0.80;99.90
14049;DHT22;7099;53.922;10.728;2022-12-16T16:21:05;0.80;99.90
14049;DHT22;7099;53.922;10.728;2022-12-16T16:25:30;0.80;99.90
14049;DHT22;7099;53.922;10.728;2022-12-16T16:29:53;0.80;99.90
14049;DHT22;7099;53.922;10.728;2022-12-16T16:34:17;0.80;99.90
14049;DHT22;7099;53.922;10.728;2022-12-16T16:38:40;0.70;99.90
14049;DHT22;7099;53.922;10.728;2022-12-16T16:43:04;0.70;99.90
14049;DHT22;7099;53.922;10.728;2022-12-16T16:47:27;0.70;99.90
14049;DHT22;7099;53.922;10.728;2022-12-16T16:51:51;0.70;99.90
14049;DHT22;7099;53.922;10.728;2022-12-16T16:56:14;0.70;99.90
14049;DHT22;7099;53.922;10.728;2022-12-16T17:00:37;0.70;99.90
14049;DHT22;7099;53.922;10.728;2022-12-16T17:05:01;0.70;99.90
14049;DHT22;7099;53.922;10.728;2022-12-16T17:09:25;0.70;99.90
14049;DHT22;7099;53.922;10.728;2022-12-16T17:13:48;0.70;99.90
14049;DHT22;7099;53.922;10.728;2022-12-16T17:18:16;0.60;99.90
14049;DHT22;7099;53.922;10.728;2022-12-16T17:22:46;0.60;99.90
14049;DHT22;7099;53.922;10.728;2022-12-16T17:31:38;0.70;99.90
14049;DHT22;7099;53.922;10.728;2022-12-16T17:36:02;0.70;99.90
14049;DHT22;7099;53.922;10.728;2022-12-16T17:40:30;0.70;99.90
14049;DHT22;7099;53.922;10.728;2022-12-16T17:44:54;0.70;99.90
14049;DHT22;7099;53.922;10.728;2022-12-16T17:49:34;0.70;99.90
14049;DHT22;7099;53.922;10.728;2022-12-16T17:53:58;0.70;99.90
14049;DHT22;7099;53.922;10.728;2022-12-16T17:58:31;0.70;99.90
14049;DHT22;7099;53.922;10.728;2022-12-16T18:02:56;0.60;99.90
14049;DHT22;7099;53.922;10.728;2022-12-16T18:07:20;0.60;99.90
14049;DHT22;7099;53.922;10.728;2022-12-16T18:11:43;0.60;99.90
14049;DHT22;7099;53.922;10.728;2022-12-16T18:16:08;0.60;99.90
14049;DHT22;7099;53.922;10.728;2022-12-16T18:20:32;0.60;99.90
14049;DHT22;7099;53.922;10.728;2022-12-16T18:24:56;0.60;99.90
14049;DHT22;7099;53.922;10.728;2022-12-16T18:29:19;0.60;99.90
14049;DHT22;7099;53.922;10.728;2022-12-16T18:33:43;0.50;99.90
14049;DHT22;7099;53.922;10.728;2022-12-16T18:38:06;0.60;99.90
14049;DHT22;7099;53.922;10.728;2022-12-16T18:42:29;0.50;99.90
14049;DHT22;7099;53.922;10.728;2022-12-16T18:46:53;0.60;99.90
14049;DHT22;7099;53.922;10.728;2022-12-16T18:51:16;0.60;99.90
14049;DHT22;7099;53.922;10.728;2022-12-16T18:55:40;0.50;99.90
14049;DHT22;7099;53.922;10.728;2022-12-16T19:00:03;0.60;99.90
14049;DHT22;7099;53.922;10.728;2022-12-16T19:04:27;0.50;99.90
14049;DHT22;7099;53.922;10.728;2022-12-16T19:08:50;0.50;99.90
14049;DHT22;7099;53.922;10.728;2022-12-16T19:13:14;0.40;99.90
14049;DHT22;7099;53.922;10.728;2022-12-16T19:17:38;0.40;99.90
14049;DHT22;7099;53.922;10.728;2022-12-16T19:22:02;0.40;99.90
14049;DHT22;7099;53.922;10.728;2022-12-16T19:26:25;0.40;99.90
14049;DHT22;7099;53.922;10.728;2022-12-16T19:30:53;0.40;99.90
14049;DHT22;7099;53.922;10.728;2022-12-16T19:35:17;0.30;99.90
14049;DHT22;7099;53.922;10.728;2022-12-16T19:40:00;0.30;99.90
14049;DHT22;7099;53.922;10.728;2022-12-16T19:44:24;0.30;99.90
14049;DHT22;7099;53.922;10.728;2022-12-16T19:48:47;0.30;99.90
14049;DHT22;7099;53.922;10.728;2022-12-16T19:53:12;0.30;99.90
14049;DHT22;7099;53.922;10.728;2022-12-16T19:57:35;0.20;99.90
14049;DHT22;7099;53.922;10.728;2022-12-16T20:01:59;0.20;99.90
14049;DHT22;7099;53.922;10.728;2022-12-16T20:06:24;0.20;99.90
14049;DHT22;7099;53.922;10.728;2022-12-16T20:10:47;0.10;99.90
14049;DHT22;7099;53.922;10.728;2022-12-16T20:15:11;0.10;99.90
14049;DHT22;7099;53.922;10.728;2022-12-16T20:19:34;0.10;99.90
14049;DHT22;7099;53.922;10.728;2022-12-16T20:24:19;0.10;99.90
14049;DHT22;7099;53.922;10.728;2022-12-16T20:28:43;0.00;99.90
14049;DHT22;7099;53.922;10.728;2022-12-16T20:33:16;0.00;99.90
14049;DHT22;7099;53.922;10.728;2022-12-16T20:37:39;-0.10;99.90
14049;DHT22;7099;53.922;10.728;2022-12-16T20:42:03;-0.20;99.90
14049;DHT22;7099;53.922;10.728;2022-12-16T20:46:27;-0.20;99.90
14049;DHT22;7099;53.922;10.728;2022-12-16T20:50:55;-0.30;99.90
14049;DHT22;7099;53.922;10.728;2022-12-16T20:55:27;-0.40;99.90
14049;DHT22;7099;53.922;10.728;2022-12-16T20:59:51;-0.50;99.90
14049;DHT22;7099;53.922;10.728;2022-12-16T21:04:14;-0.50;99.90
14049;DHT22;7099;53.922;10.728;2022-12-16T21:08:38;-0.50;99.90
14049;DHT22;7099;53.922;10.728;2022-12-16T21:13:09;-0.60;99.90
14049;DHT22;7099;53.922;10.728;2022-12-16T21:17:35;-0.70;99.90
14049;DHT22;7099;53.922;10.728;2022-12-16T21:22:18;-0.80;99.90
14049;DHT22;7099;53.922;10.728;2022-12-16T21:26:41;-0.80;99.90
14049;DHT22;7099;53.922;10.728;2022-12-16T21:31:04;-0.90;99.90
14049;DHT22;7099;53.922;10.728;2022-12-16T21:35:28;-0.90;99.90
14049;DHT22;7099;53.922;10.728;2022-12-16T21:39:51;-1.00;99.90
14049;DHT22;7099;53.922;10.728;2022-12-16T21:44:15;-1.10;99.90
14049;DHT22;7099;53.922;10.728;2022-12-16T21:48:38;-1.10;99.90
14049;DHT22;7099;53.922;10.728;2022-12-16T21:53:01;-1.20;99.90
14049;DHT22;7099;53.922;10.728;2022-12-16T21:57:26;-1.20;99.90
14049;DHT22;7099;53.922;10.728;2022-12-16T22:01:50;-1.30;99.90
14049;DHT22;7099;53.922;10.728;2022-12-16T22:06:14;-1.30;99.90
14049;DHT22;7099;53.922;10.728;2022-12-16T22:10:38;-1.40;99.90
14049;DHT22;7099;53.922;10.728;2022-12-16T22:15:02;-1.40;99.90
14049;DHT22;7099;53.922;10.728;2022-12-16T22:19:26;-1.50;99.90
14049;DHT22;7099;53.922;10.728;2022-12-16T22:23:52;-1.60;99.90
14049;DHT22;7099;53.922;10.728;2022-12-16T22:28:30;-1.60;99.90
14049;DHT22;7099;53.922;10.728;2022-12-16T22:32:54;-1.60;99.90
14049;DHT22;7099;53.922;10.728;2022-12-16T22:37:18;-1.70;99.90
14049;DHT22;7099;53.922;10.728;2022-12-16T22:41:42;-1.70;99.90
14049;DHT22;7099;53.922;10.728;2022-12-16T22:46:06;-1.70;99.90
14049;DHT22;7099;53.922;10.728;2022-12-16T22:50:30;-1.80;99.90
14049;DHT22;7099;53.922;10.728;2022-12-16T22:54:55;-1.90;99.90
14049;DHT22;7099;53.922;10.728;2022-12-16T22:59:18;-1.90;99.90
14049;DHT22;7099;53.922;10.728;2022-12-16T23:03:42;-1.90;99.90
14049;DHT22;7099;53.922;10.728;2022-12-16T23:08:07;-2.00;99.90
14049;DHT22;7099;53.922;10.728;2022-12-16T23:12:32;-2.10;99.90
14049;DHT22;7099;53.922;10.728;2022-12-16T23:16:59;-2.10;99.90
14049;DHT22;7099;53.922;10.728;2022-12-16T23:21:23;-2.10;99.90
14049;DHT22;7099;53.922;10.728;2022-12-16T23:25:57;-2.10;99.90
14049;DHT22;7099;53.922;10.728;2022-12-16T23:30:22;-2.20;99.90
14049;DHT22;7099;53.922;10.728;2022-12-16T23:34:46;-2.30;99.90
14049;DHT22;7099;53.922;10.728;2022-12-16T23:39:09;-2.30;99.90
14049;DHT22;7099;53.922;10.728;2022-12-16T23:43:34;-2.30;99.90
14049;DHT22;7099;53.922;10.728;2022-12-16T23:48:05;-2.40;99.90
14049;DHT22;7099;53.922;10.728;2022-12-16T23:52:30;-2.40;99.90
14049;DHT22;7099;53.922;10.728;2022-12-16T23:56:54;-2.40;99.90
